createdAt,value
2018-07-21T00:00:38.856Z,0
2018-07-21T00:01:48.939Z,0
2018-07-21T00:02:59.035Z,0
2018-07-21T00:04:08.829Z,0
2018-07-21T00:05:18.898Z,0
2018-07-21T00:06:28.733Z,0
2018-07-21T00:07:38.819Z,0
2018-07-21T00:08:48.902Z,0
2018-07-21T00:09:58.703Z,0
2018-07-21T00:11:08.780Z,0
2018-07-21T00:12:18.909Z,0
2018-07-21T00:13:28.984Z,0
2018-07-21T00:14:39.052Z,0
2018-07-21T00:15:49.118Z,0
2018-07-21T00:16:59.184Z,0
2018-07-21T00:18:09.094Z,0
2018-07-21T00:19:19.159Z,0
2018-07-21T00:20:29.239Z,0
2018-07-21T00:21:39.312Z,0
2018-07-21T00:22:49.118Z,0
2018-07-21T00:23:59.243Z,0
2018-07-21T00:25:08.504Z,0
2018-07-21T00:26:18.574Z,0
2018-07-21T00:27:28.638Z,0
2018-07-21T00:28:38.437Z,0
2018-07-21T00:29:48.302Z,0
2018-07-21T00:30:58.365Z,0
2018-07-21T00:32:08.165Z,0
2018-07-21T00:33:18.223Z,0
2018-07-21T00:34:28.305Z,0
2018-07-21T00:35:38.444Z,0
2018-07-21T00:36:48.507Z,0
2018-07-21T00:37:58.299Z,0
2018-07-21T00:39:08.371Z,0
2018-07-21T00:40:18.151Z,0
2018-07-21T00:41:28.290Z,0
2018-07-21T00:42:38.362Z,0
2018-07-21T00:43:48.175Z,0
2018-07-21T00:44:57.989Z,0
2018-07-21T00:46:07.778Z,0
2018-07-21T00:47:17.894Z,0
2018-07-21T00:48:27.686Z,0
2018-07-21T00:49:37.206Z,0
2018-07-21T00:50:47.010Z,0
2018-07-21T00:51:57.081Z,0
2018-07-21T00:53:06.938Z,0
2018-07-21T00:54:17.016Z,0
2018-07-21T00:55:26.828Z,0
2018-07-21T00:56:36.908Z,0
2018-07-21T00:57:46.697Z,0
2018-07-21T00:58:56.840Z,0
2018-07-21T01:00:06.916Z,0
2018-07-21T01:01:16.986Z,0
2018-07-21T01:02:27.057Z,0
2018-07-21T01:03:36.854Z,0
2018-07-21T01:04:46.962Z,0
2018-07-21T01:05:57.015Z,0
2018-07-21T01:07:06.528Z,0
2018-07-21T01:08:16.593Z,0
2018-07-21T01:09:26.381Z,0
2018-07-21T01:10:35.697Z,0
2018-07-21T01:11:45.758Z,0
2018-07-21T01:12:55.839Z,0
2018-07-21T01:14:05.900Z,0
2018-07-21T01:15:15.423Z,0
2018-07-21T01:16:25.281Z,0
2018-07-21T01:17:34.803Z,0
2018-07-21T01:18:44.343Z,0
2018-07-21T01:19:54.140Z,0
2018-07-21T01:21:04.196Z,0
2018-07-21T01:22:14.303Z,0
2018-07-21T01:23:23.821Z,0
2018-07-21T01:24:33.360Z,0
2018-07-21T01:25:43.418Z,0
2018-07-21T01:26:53.229Z,0
2018-07-21T01:28:03.352Z,0
2018-07-21T01:29:13.434Z,0
2018-07-21T01:30:23.231Z,0
2018-07-21T01:31:33.017Z,0
2018-07-21T01:32:42.541Z,0
2018-07-21T01:33:52.386Z,0
2018-07-21T01:35:02.443Z,0
2018-07-21T01:36:12.020Z,0
2018-07-21T01:37:22.081Z,0
2018-07-21T01:38:31.889Z,0
2018-07-21T01:39:42.006Z,0
2018-07-21T01:40:51.795Z,0
2018-07-21T01:42:01.884Z,0
2018-07-21T01:43:11.699Z,0
2018-07-21T01:44:21.495Z,0
2018-07-21T01:45:31.625Z,0
2018-07-21T01:46:41.685Z,0
2018-07-21T01:47:51.747Z,0
2018-07-21T01:49:01.818Z,0
2018-07-21T01:50:11.079Z,0
2018-07-21T01:51:21.195Z,0
2018-07-21T01:52:31.266Z,0
2018-07-21T01:53:40.790Z,0
2018-07-21T01:54:50.851Z,0
2018-07-21T01:56:00.933Z,0
2018-07-21T01:57:11.055Z,0
2018-07-21T01:58:20.855Z,0
2018-07-21T01:59:30.649Z,0
2018-07-21T02:00:40.430Z,0
2018-07-21T02:01:50.230Z,0
2018-07-21T02:03:00.320Z,0
2018-07-21T02:04:09.857Z,0
2018-07-21T02:05:19.366Z,0
2018-07-21T02:06:29.431Z,0
2018-07-21T02:07:39.223Z,0
2018-07-21T02:08:49.329Z,0
2018-07-21T02:09:59.384Z,0
2018-07-21T02:11:08.900Z,0
2018-07-21T02:12:18.971Z,0
2018-07-21T02:13:27.962Z,0
2018-07-21T02:14:38.057Z,5
2018-07-21T02:15:48.160Z,5
2018-07-21T02:16:57.949Z,5
2018-07-21T02:18:08.007Z,5
2018-07-21T02:19:18.074Z,5
2018-07-21T02:20:27.919Z,5
2018-07-21T02:21:37.996Z,5
2018-07-21T02:22:48.008Z,5
2018-07-21T02:23:58.030Z,5
2018-07-21T02:25:07.568Z,5
2018-07-21T02:26:17.425Z,5
2018-07-21T02:27:27.480Z,5
2018-07-21T02:28:37.550Z,10
2018-07-21T02:29:47.361Z,10
2018-07-21T02:30:57.439Z,10
2018-07-21T02:32:06.763Z,10
2018-07-21T02:33:16.305Z,10
2018-07-21T02:34:26.125Z,10
2018-07-21T02:35:35.657Z,10
2018-07-21T02:36:45.729Z,10
2018-07-21T02:37:55.313Z,15
2018-07-21T02:39:05.391Z,15
2018-07-21T02:40:14.923Z,15
2018-07-21T02:41:24.455Z,15
2018-07-21T02:42:34.534Z,15
2018-07-21T02:43:44.669Z,15
2018-07-21T02:44:54.740Z,15
2018-07-21T02:46:04.534Z,20
2018-07-21T02:47:14.601Z,20
2018-07-21T02:48:24.658Z,20
2018-07-21T02:49:34.550Z,20
2018-07-21T02:50:44.090Z,20
2018-07-21T02:51:54.163Z,20
2018-07-21T02:53:04.236Z,25
2018-07-21T02:54:14.310Z,25
2018-07-21T02:55:24.443Z,25
2018-07-21T02:56:34.529Z,25
2018-07-21T02:57:44.615Z,30
2018-07-21T02:58:54.681Z,30
2018-07-21T03:00:04.496Z,30
2018-07-21T03:03:47.595Z,35
2018-07-21T03:04:57.692Z,35
2018-07-21T03:06:07.489Z,35
2018-07-21T03:07:17.290Z,40
2018-07-21T03:08:27.360Z,40
2018-07-21T03:09:37.218Z,45
2018-07-21T03:10:47.332Z,45
2018-07-21T03:11:57.128Z,45
2018-07-21T03:13:07.210Z,45
2018-07-21T03:14:17.284Z,50
2018-07-21T03:15:27.391Z,50
2018-07-21T03:16:37.189Z,50
2018-07-21T03:17:47.001Z,50
2018-07-21T03:18:56.803Z,50
2018-07-21T03:20:06.330Z,55
2018-07-21T03:21:15.917Z,55
2018-07-21T03:22:25.731Z,55
2018-07-21T03:23:35.527Z,55
2018-07-21T03:24:45.328Z,60
2018-07-21T03:25:55.415Z,60
2018-07-21T03:27:05.276Z,60
2018-07-21T03:28:14.815Z,60
2018-07-21T03:29:24.884Z,65
2018-07-21T03:30:34.678Z,65
2018-07-21T03:31:44.499Z,70
2018-07-21T03:32:54.357Z,70
2018-07-21T03:34:04.459Z,75
2018-07-21T03:35:14.259Z,75
2018-07-21T03:36:24.348Z,75
2018-07-21T03:37:34.134Z,80
2018-07-21T03:38:44.260Z,80
2018-07-21T03:39:54.324Z,80
2018-07-21T03:41:04.143Z,80
2018-07-21T03:42:13.958Z,80
2018-07-21T03:43:23.758Z,80
2018-07-21T03:44:33.879Z,80
2018-07-21T03:45:43.684Z,80
2018-07-21T03:46:53.492Z,85
2018-07-21T03:48:03.545Z,85
2018-07-21T03:49:13.067Z,85
2018-07-21T03:50:23.181Z,85
2018-07-21T03:51:33.257Z,90
2018-07-21T03:52:43.316Z,90
2018-07-21T03:53:53.422Z,90
2018-07-21T03:55:03.674Z,95
2018-07-21T03:56:13.336Z,95
2018-07-21T03:57:22.872Z,95
2018-07-21T03:58:32.922Z,95
2018-07-21T03:59:42.720Z,105
2018-07-21T04:00:52.249Z,100
2018-07-21T04:02:02.373Z,100
2018-07-21T04:03:11.659Z,100
2018-07-21T04:04:21.729Z,105
2018-07-21T04:05:31.799Z,105
2018-07-21T04:06:41.876Z,105
2018-07-21T04:07:51.725Z,105
2018-07-21T04:09:01.476Z,105
2018-07-21T04:10:11.032Z,110
2018-07-21T04:11:20.836Z,110
2018-07-21T04:12:30.633Z,110
2018-07-21T04:13:40.732Z,110
2018-07-21T04:14:50.835Z,110
2018-07-21T04:16:00.912Z,110
2018-07-21T04:17:10.449Z,110
2018-07-21T04:18:20.508Z,110
2018-07-21T04:19:29.806Z,115
2018-07-21T04:20:39.616Z,115
2018-07-21T04:21:49.678Z,115
2018-07-21T04:22:59.213Z,115
2018-07-21T04:24:09.096Z,115
2018-07-21T04:25:18.951Z,120
2018-07-21T04:26:28.752Z,120
2018-07-21T04:27:38.541Z,120
2018-07-21T04:28:48.602Z,120
2018-07-21T04:29:58.666Z,120
2018-07-21T04:31:08.770Z,125
2018-07-21T04:32:18.850Z,125
2018-07-21T04:33:28.640Z,125
2018-07-21T04:34:38.433Z,125
2018-07-21T04:35:48.500Z,125
2018-07-21T04:36:58.363Z,130
2018-07-21T04:38:07.897Z,130
2018-07-21T04:39:17.681Z,135
2018-07-21T04:40:27.762Z,130
2018-07-21T04:41:37.558Z,130
2018-07-21T04:42:47.402Z,135
2018-07-21T04:43:57.219Z,135
2018-07-21T04:45:07.041Z,135
2018-07-21T04:46:17.131Z,135
2018-07-21T04:47:27.203Z,135
2018-07-21T04:48:37.323Z,135
2018-07-21T04:49:47.397Z,145
2018-07-21T04:50:57.469Z,145
2018-07-21T04:52:07.532Z,145
2018-07-21T04:53:17.042Z,145
2018-07-21T04:54:27.164Z,140
2018-07-21T04:55:37.246Z,145
2018-07-21T04:56:47.307Z,145
2018-07-21T04:57:57.378Z,145
2018-07-21T04:59:06.901Z,145
2018-07-21T05:00:17.071Z,140
2018-07-21T05:01:26.872Z,145
2018-07-21T05:02:36.388Z,145
2018-07-21T05:03:46.492Z,145
2018-07-21T05:04:56.302Z,145
2018-07-21T05:06:05.889Z,145
2018-07-21T05:07:15.412Z,145
2018-07-21T05:08:25.208Z,145
2018-07-21T05:09:34.998Z,145
2018-07-21T05:10:45.072Z,145
2018-07-21T05:11:54.901Z,145
2018-07-21T05:13:04.708Z,145
2018-07-21T05:14:14.246Z,150
2018-07-21T05:15:24.325Z,150
2018-07-21T05:16:34.125Z,150
2018-07-21T05:17:43.967Z,150
2018-07-21T05:18:53.756Z,150
2018-07-21T05:20:03.094Z,150
2018-07-21T05:21:12.627Z,150
2018-07-21T05:22:22.414Z,150
2018-07-21T05:23:32.548Z,150
2018-07-21T05:24:42.324Z,150
2018-07-21T05:25:52.390Z,155
2018-07-21T05:27:02.460Z,155
2018-07-21T05:28:12.250Z,155
2018-07-21T05:29:22.111Z,155
2018-07-21T05:30:31.622Z,155
2018-07-21T05:31:41.411Z,155
2018-07-21T05:32:50.948Z,155
2018-07-21T05:34:01.037Z,155
2018-07-21T05:35:11.178Z,155
2018-07-21T05:36:21.266Z,155
2018-07-21T05:37:31.347Z,155
2018-07-21T05:38:41.431Z,155
2018-07-21T05:39:51.257Z,160
2018-07-21T05:41:01.384Z,160
2018-07-21T05:42:11.171Z,160
2018-07-21T05:43:21.227Z,160
2018-07-21T05:44:31.036Z,160
2018-07-21T05:45:41.108Z,160
2018-07-21T05:46:51.256Z,160
2018-07-21T05:48:01.054Z,160
2018-07-21T05:49:10.857Z,160
2018-07-21T05:50:20.643Z,160
2018-07-21T05:51:30.719Z,160
2018-07-21T05:52:40.572Z,160
2018-07-21T05:53:50.635Z,165
2018-07-21T05:55:00.695Z,165
2018-07-21T05:56:10.488Z,165
2018-07-21T05:57:20.550Z,165
2018-07-21T05:58:30.408Z,165
2018-07-21T05:59:39.926Z,165
2018-07-21T06:00:49.731Z,165
2018-07-21T06:01:59.795Z,165
2018-07-21T06:03:09.985Z,165
2018-07-21T06:04:20.141Z,165
2018-07-21T06:05:29.988Z,165
2018-07-21T06:06:40.063Z,165
2018-07-21T06:07:50.148Z,165
2018-07-21T06:09:00.268Z,165
2018-07-21T06:10:10.430Z,165
2018-07-21T06:11:20.562Z,170
2018-07-21T06:12:30.353Z,170
2018-07-21T06:13:40.161Z,170
2018-07-21T06:14:49.698Z,170
2018-07-21T06:15:59.817Z,170
2018-07-21T06:17:09.649Z,170
2018-07-21T06:18:19.764Z,170
2018-07-21T06:19:29.553Z,170
2018-07-21T06:20:39.615Z,170
2018-07-21T06:21:49.737Z,170
2018-07-21T06:22:59.529Z,170
2018-07-21T06:24:09.066Z,170
2018-07-21T06:25:19.630Z,170
2018-07-21T06:26:29.510Z,175
2018-07-21T06:27:39.657Z,175
2018-07-21T06:28:49.724Z,175
2018-07-21T06:29:59.513Z,175
2018-07-21T06:31:09.051Z,175
2018-07-21T06:32:19.105Z,175
2018-07-21T06:33:29.243Z,175
2018-07-21T06:34:39.045Z,175
2018-07-21T06:35:48.958Z,175
2018-07-21T06:37:17.702Z,175
2018-07-21T06:38:27.769Z,180
2018-07-21T06:39:38.138Z,180
2018-07-21T06:40:48.234Z,180
2018-07-21T06:41:58.314Z,180
2018-07-21T06:43:08.265Z,180
2018-07-21T06:44:17.857Z,180
2018-07-21T06:45:27.673Z,175
2018-07-21T06:46:37.748Z,180
2018-07-21T06:47:47.611Z,180
2018-07-21T06:48:57.669Z,180
2018-07-21T06:50:07.790Z,175
2018-07-21T06:51:17.574Z,180
2018-07-21T06:52:27.655Z,180
2018-07-21T06:53:37.736Z,180
2018-07-21T06:54:47.285Z,180
2018-07-21T06:55:57.402Z,185
2018-07-21T06:57:07.483Z,180
2018-07-21T06:58:16.744Z,180
2018-07-21T06:59:26.826Z,185
2018-07-21T07:00:36.639Z,180
2018-07-21T07:01:46.495Z,185
2018-07-21T07:02:56.582Z,180
2018-07-21T07:04:06.397Z,185
2018-07-21T07:05:16.473Z,185
2018-07-21T07:06:26.547Z,185
2018-07-21T07:07:36.684Z,185
2018-07-21T07:08:46.764Z,185
2018-07-21T07:09:56.824Z,185
2018-07-21T07:11:06.634Z,185
2018-07-21T07:12:16.443Z,185
2018-07-21T07:13:26.585Z,185
2018-07-21T07:14:36.657Z,185
2018-07-21T07:15:46.458Z,185
2018-07-21T07:16:56.545Z,185
2018-07-21T07:18:06.339Z,185
2018-07-21T07:19:16.457Z,185
2018-07-21T07:20:26.268Z,185
2018-07-21T07:21:36.350Z,190
2018-07-21T07:22:46.427Z,190
2018-07-21T07:23:56.237Z,190
2018-07-21T07:25:06.352Z,190
2018-07-21T07:26:16.425Z,190
2018-07-21T07:27:26.605Z,190
2018-07-21T07:28:36.418Z,190
2018-07-21T07:29:45.960Z,190
2018-07-21T07:30:56.090Z,190
2018-07-21T07:32:06.163Z,190
2018-07-21T07:33:15.421Z,190
2018-07-21T07:34:25.230Z,190
2018-07-21T07:35:35.032Z,190
2018-07-21T07:36:44.894Z,190
2018-07-21T07:37:54.436Z,195
2018-07-21T07:39:04.240Z,195
2018-07-21T07:40:14.338Z,195
2018-07-21T07:41:24.138Z,195
2018-07-21T07:42:34.249Z,195
2018-07-21T07:43:44.341Z,195
2018-07-21T07:44:53.881Z,195
2018-07-21T07:46:03.416Z,195
2018-07-21T07:47:13.202Z,195
2018-07-21T07:48:23.326Z,195
2018-07-21T07:49:33.119Z,200
2018-07-21T07:50:43.189Z,195
2018-07-21T07:51:52.997Z,205
2018-07-21T07:53:02.811Z,200
2018-07-21T07:54:12.916Z,200
2018-07-21T07:55:22.702Z,200
2018-07-21T07:56:32.243Z,200
2018-07-21T07:57:42.330Z,200
2018-07-21T07:58:52.138Z,200
2018-07-21T08:00:01.721Z,200
2018-07-21T08:01:11.079Z,200
2018-07-21T08:02:20.644Z,200
2018-07-21T08:03:30.465Z,205
2018-07-21T08:04:40.269Z,205
2018-07-21T08:05:50.384Z,205
2018-07-21T08:07:00.462Z,205
2018-07-21T08:08:10.276Z,205
2018-07-21T08:09:19.819Z,205
2018-07-21T08:10:29.901Z,205
2018-07-21T08:11:39.485Z,205
2018-07-21T08:12:49.278Z,210
2018-07-21T08:13:59.337Z,210
2018-07-21T08:15:08.867Z,210
2018-07-21T08:16:18.408Z,210
2018-07-21T08:17:28.539Z,210
2018-07-21T08:18:38.615Z,210
2018-07-21T08:19:48.426Z,210
2018-07-21T08:20:58.503Z,210
2018-07-21T08:22:08.558Z,210
2018-07-21T08:23:18.671Z,210
2018-07-21T08:24:28.767Z,215
2018-07-21T08:25:38.832Z,215
2018-07-21T08:26:48.898Z,215
2018-07-21T08:27:58.970Z,215
2018-07-21T08:29:09.310Z,215
2018-07-21T08:30:19.388Z,215
2018-07-21T08:31:28.923Z,215
2018-07-21T08:32:38.441Z,220
2018-07-21T08:33:48.515Z,220
2018-07-21T08:34:58.102Z,220
2018-07-21T08:36:07.897Z,220
2018-07-21T08:37:17.701Z,220
2018-07-21T08:38:27.503Z,220
2018-07-21T08:39:37.291Z,220
2018-07-21T08:40:47.417Z,220
2018-07-21T08:41:57.209Z,225
2018-07-21T08:43:07.019Z,225
2018-07-21T08:44:16.816Z,225
2018-07-21T08:45:26.882Z,225
2018-07-21T08:46:36.988Z,225
2018-07-21T08:47:46.775Z,230
2018-07-21T08:48:56.863Z,225
2018-07-21T08:50:07.044Z,230
2018-07-21T08:51:16.840Z,230
2018-07-21T08:52:26.980Z,230
2018-07-21T08:53:37.059Z,230
2018-07-21T08:54:47.121Z,230
2018-07-21T08:55:57.486Z,235
2018-07-21T08:57:07.314Z,235
2018-07-21T08:58:17.432Z,235
2018-07-21T08:59:27.226Z,235
2018-07-21T09:00:37.304Z,235
2018-07-21T09:01:47.113Z,235
2018-07-21T09:02:57.169Z,235
2018-07-21T09:04:06.502Z,235
2018-07-21T09:05:16.569Z,235
2018-07-21T09:06:26.348Z,235
2018-07-21T09:07:36.416Z,240
2018-07-21T09:08:45.960Z,240
2018-07-21T09:09:56.075Z,240
2018-07-21T09:11:06.184Z,240
2018-07-21T09:12:15.717Z,240
2018-07-21T09:13:25.798Z,240
2018-07-21T09:14:35.068Z,245
2018-07-21T09:15:45.215Z,245
2018-07-21T09:16:55.305Z,245
2018-07-21T09:18:05.361Z,245
2018-07-21T09:19:15.169Z,245
2018-07-21T09:20:25.246Z,245
2018-07-21T09:21:35.453Z,250
2018-07-21T09:22:45.271Z,250
2018-07-21T09:23:55.073Z,250
2018-07-21T09:25:04.614Z,250
2018-07-21T09:26:14.166Z,250
2018-07-21T09:27:23.764Z,250
2018-07-21T09:28:33.837Z,250
2018-07-21T09:29:43.940Z,250
2018-07-21T09:30:53.744Z,250
2018-07-21T09:32:03.271Z,250
2018-07-21T09:33:13.395Z,250
2018-07-21T09:34:23.325Z,250
2018-07-21T09:35:33.451Z,250
2018-07-21T09:36:43.536Z,250
2018-07-21T09:37:53.345Z,250
2018-07-21T09:39:03.475Z,255
2018-07-21T09:40:13.753Z,255
2018-07-21T09:41:23.879Z,255
2018-07-21T09:42:33.986Z,255
2018-07-21T09:43:43.791Z,255
2018-07-21T09:44:53.631Z,255
2018-07-21T09:46:03.453Z,255
2018-07-21T09:47:13.268Z,255
2018-07-21T09:48:23.354Z,255
2018-07-21T09:49:33.426Z,260
2018-07-21T09:50:43.285Z,260
2018-07-21T09:51:53.091Z,260
2018-07-21T09:53:02.889Z,260
2018-07-21T09:54:12.707Z,260
2018-07-21T09:55:22.251Z,260
2018-07-21T09:56:31.834Z,265
2018-07-21T09:57:41.104Z,265
2018-07-21T09:58:50.911Z,265
2018-07-21T10:00:00.168Z,265
2018-07-21T10:01:10.237Z,265
2018-07-21T10:02:19.824Z,270
2018-07-21T10:03:29.619Z,270
2018-07-21T10:04:39.421Z,270
2018-07-21T10:05:49.224Z,270
2018-07-21T10:06:59.298Z,270
2018-07-21T10:08:08.882Z,275
2018-07-21T10:09:18.958Z,275
2018-07-21T10:10:29.030Z,275
2018-07-21T10:11:39.101Z,275
2018-07-21T10:12:49.186Z,275
2018-07-21T10:13:58.762Z,275
2018-07-21T10:15:08.568Z,275
2018-07-21T10:16:18.642Z,280
2018-07-21T10:17:28.697Z,280
2018-07-21T10:18:38.760Z,280
2018-07-21T10:19:48.892Z,280
2018-07-21T10:20:58.961Z,280
2018-07-21T10:22:09.124Z,280
2018-07-21T10:23:18.947Z,280
2018-07-21T10:24:29.122Z,285
2018-07-21T10:25:38.994Z,285
2018-07-21T10:26:48.815Z,285
2018-07-21T10:27:58.090Z,285
2018-07-21T10:29:07.358Z,285
2018-07-21T10:30:17.060Z,285
2018-07-21T10:31:27.195Z,290
2018-07-21T10:32:37.298Z,290
2018-07-21T10:33:47.548Z,290
2018-07-21T10:34:57.374Z,290
2018-07-21T10:36:07.923Z,290
2018-07-21T10:37:18.059Z,290
2018-07-21T10:38:27.858Z,295
2018-07-21T10:39:37.908Z,295
2018-07-21T10:40:47.447Z,295
2018-07-21T10:41:57.528Z,295
2018-07-21T10:43:07.109Z,295
2018-07-21T10:44:16.657Z,295
2018-07-21T10:45:26.752Z,300
2018-07-21T10:46:36.568Z,300
2018-07-21T10:47:45.833Z,300
2018-07-21T10:48:55.965Z,300
2018-07-21T10:50:06.033Z,300
2018-07-21T10:51:15.833Z,305
2018-07-21T10:52:25.629Z,305
2018-07-21T10:53:35.707Z,305
2018-07-21T10:54:45.566Z,305
2018-07-21T10:55:54.823Z,305
2018-07-21T10:57:04.626Z,310
2018-07-21T10:58:14.700Z,310
2018-07-21T10:59:24.782Z,310
2018-07-21T11:00:34.930Z,310
2018-07-21T11:01:45.057Z,310
2018-07-21T11:02:54.584Z,310
2018-07-21T11:04:03.589Z,310
2018-07-21T11:05:13.410Z,310
2018-07-21T11:06:23.530Z,315
2018-07-21T11:07:33.336Z,315
2018-07-21T11:08:42.880Z,315
2018-07-21T11:09:52.686Z,315
2018-07-21T11:11:02.473Z,315
2018-07-21T11:12:11.505Z,315
2018-07-21T11:13:21.335Z,325
2018-07-21T11:14:31.400Z,325
2018-07-21T11:15:41.528Z,320
2018-07-21T11:16:51.360Z,320
2018-07-21T11:18:00.948Z,320
2018-07-21T11:19:10.760Z,325
2018-07-21T11:20:20.848Z,325
2018-07-21T11:21:30.937Z,325
2018-07-21T11:22:41.011Z,330
2018-07-21T11:23:50.870Z,330
2018-07-21T11:25:00.945Z,330
2018-07-21T11:26:10.755Z,330
2018-07-21T11:27:20.562Z,330
2018-07-21T11:28:30.625Z,330
2018-07-21T11:29:40.473Z,335
2018-07-21T11:30:50.561Z,335
2018-07-21T11:32:00.644Z,335
2018-07-21T11:33:10.715Z,340
2018-07-21T11:34:20.796Z,345
2018-07-21T11:35:31.285Z,345
2018-07-21T11:36:41.322Z,355
2018-07-21T11:37:51.134Z,560
2018-07-21T11:39:01.209Z,1905
2018-07-21T11:40:11.006Z,2675
2018-07-21T11:41:21.145Z,2460
2018-07-21T11:42:31.215Z,2660
2018-07-21T11:43:41.293Z,2770
2018-07-21T11:44:50.817Z,2730
2018-07-21T11:46:00.911Z,2655
2018-07-21T11:47:10.769Z,2615
2018-07-21T11:48:20.580Z,2785
2018-07-21T11:49:30.667Z,2930
2018-07-21T11:50:40.491Z,3160
2018-07-21T11:51:50.310Z,3060
2018-07-21T11:53:00.432Z,2740
2018-07-21T11:54:10.236Z,2410
2018-07-21T11:55:20.297Z,2130
2018-07-21T11:56:30.119Z,2175
2018-07-21T11:57:40.194Z,2800
2018-07-21T11:58:50.337Z,3010
2018-07-21T12:00:00.421Z,2950
2018-07-21T12:01:09.691Z,2885
2018-07-21T12:02:19.485Z,2975
2018-07-21T12:03:29.569Z,2755
2018-07-21T12:04:39.171Z,2810
2018-07-21T12:05:49.727Z,2990
2018-07-21T12:06:59.021Z,2855
2018-07-21T12:08:09.094Z,2645
2018-07-21T12:09:18.935Z,2750
2018-07-21T12:10:29.086Z,2855
2018-07-21T12:11:38.092Z,2495
2018-07-21T12:12:47.656Z,2395
2018-07-21T12:13:57.484Z,2675
2018-07-21T12:15:07.057Z,2605
2018-07-21T12:16:16.930Z,2170
2018-07-21T12:17:27.015Z,1740
2018-07-21T12:18:37.114Z,1660
2018-07-21T12:19:46.926Z,1725
2018-07-21T12:20:57.011Z,1940
2018-07-21T12:22:07.154Z,2380
2018-07-21T12:23:16.979Z,2710
2018-07-21T12:24:27.077Z,2760
2018-07-21T12:25:37.156Z,2835
2018-07-21T12:26:47.268Z,2855
2018-07-21T12:27:56.877Z,2620
2018-07-21T12:29:06.692Z,2470
2018-07-21T12:30:16.247Z,2525
2018-07-21T12:31:26.337Z,2620
2018-07-21T12:32:36.166Z,2690
2018-07-21T12:33:46.519Z,2755
2018-07-21T12:34:56.664Z,2535
2018-07-21T12:36:06.769Z,2745
2018-07-21T12:37:16.856Z,2835
2018-07-21T12:38:26.677Z,2685
2018-07-21T12:39:36.828Z,2710
2018-07-21T12:40:46.645Z,2785
2018-07-21T12:41:56.735Z,2695
2018-07-21T12:43:06.277Z,2555
2018-07-21T12:44:15.829Z,2640
2018-07-21T12:45:25.966Z,2670
2018-07-21T12:46:35.799Z,2690
2018-07-21T12:47:45.342Z,2655
2018-07-21T12:48:55.440Z,2720
2018-07-21T12:50:05.516Z,2750
2018-07-21T12:51:15.635Z,2725
2018-07-21T12:52:25.728Z,2680
2018-07-21T12:53:35.834Z,2610
2018-07-21T12:54:45.658Z,2550
2018-07-21T12:55:55.215Z,2525
2018-07-21T12:57:05.378Z,2505
2018-07-21T12:58:15.485Z,2435
2018-07-21T12:59:25.065Z,2370
2018-07-21T13:00:35.179Z,2365
2018-07-21T13:01:44.743Z,2315
2018-07-21T13:02:54.871Z,2170
2018-07-21T13:04:04.423Z,1975
2018-07-21T13:05:14.266Z,1995
2018-07-21T13:06:23.822Z,1980
2018-07-21T13:07:33.917Z,1950
2018-07-21T13:08:44.051Z,2060
2018-07-21T13:09:54.597Z,2170
2018-07-21T13:11:04.678Z,2370
2018-07-21T13:12:14.508Z,2675
2018-07-21T13:13:24.608Z,2850
2018-07-21T13:14:34.755Z,2685
2018-07-21T13:15:44.592Z,3255
2018-07-21T13:16:54.131Z,3510
2018-07-21T13:18:03.942Z,3030
2018-07-21T13:19:14.022Z,2915
2018-07-21T13:20:24.138Z,3275
2018-07-21T13:21:34.247Z,3335
2018-07-21T13:22:44.330Z,3015
2018-07-21T13:23:54.146Z,3195
2018-07-21T13:25:03.965Z,3345
2018-07-21T13:26:17.787Z,3215
2018-07-21T13:27:27.597Z,3440
2018-07-21T13:28:37.693Z,3405
2018-07-21T13:29:47.787Z,3200
2018-07-21T13:30:57.332Z,3350
2018-07-21T13:32:06.942Z,3325
2018-07-21T13:33:16.676Z,3540
2018-07-21T13:34:26.227Z,3660
2018-07-21T13:35:36.326Z,3600
2018-07-21T13:36:46.434Z,3625
2018-07-21T13:37:56.590Z,3480
2018-07-21T13:39:06.404Z,3320
2018-07-21T13:40:16.231Z,3435
2018-07-21T13:41:26.068Z,3410
2018-07-21T13:42:35.895Z,3295
2018-07-21T13:43:45.762Z,3355
2018-07-21T13:44:55.325Z,3265
2018-07-21T13:46:05.421Z,3340
2018-07-21T13:47:15.253Z,3305
2018-07-21T13:48:24.812Z,3340
2018-07-21T13:49:34.706Z,3545
2018-07-21T13:50:44.514Z,3590
2018-07-21T13:51:54.582Z,3335
2018-07-21T13:53:04.398Z,3440
2018-07-21T13:54:14.231Z,3490
2018-07-21T13:55:24.370Z,3275
2018-07-21T13:56:34.467Z,3060
2018-07-21T13:57:44.615Z,3300
2018-07-21T13:58:54.710Z,3415
2018-07-21T14:00:04.234Z,3290
2018-07-21T14:01:14.081Z,3265
2018-07-21T14:02:24.621Z,3450
2018-07-21T14:03:34.724Z,3525
2018-07-21T14:04:44.550Z,3325
2018-07-21T14:05:54.388Z,3310
2018-07-21T14:07:03.997Z,3430
2018-07-21T14:08:14.078Z,3285
2018-07-21T14:09:23.356Z,3345
2018-07-21T14:10:33.444Z,3380
2018-07-21T14:11:43.550Z,3395
2018-07-21T14:12:53.703Z,3385
2018-07-21T14:14:03.785Z,3315
2018-07-21T14:15:13.905Z,3220
2018-07-21T14:16:24.002Z,3125
2018-07-21T14:17:33.814Z,3185
2018-07-21T14:18:43.945Z,3065
2018-07-21T14:19:54.042Z,3105
2018-07-21T14:21:04.123Z,3185
2018-07-21T14:22:13.950Z,3195
2018-07-21T14:23:23.781Z,3165
2018-07-21T14:24:33.912Z,3180
2018-07-21T14:25:44.014Z,3140
2018-07-21T14:26:54.128Z,3155
2018-07-21T14:28:03.950Z,3125
2018-07-21T14:29:13.765Z,3255
2018-07-21T14:30:23.917Z,3160
2018-07-21T14:31:34.020Z,2950
2018-07-21T14:32:44.111Z,3120
2018-07-21T14:33:53.938Z,3150
2018-07-21T14:35:04.033Z,3155
2018-07-21T14:36:15.427Z,3055
2018-07-21T14:37:25.670Z,2965
2018-07-21T14:38:35.483Z,3005
2018-07-21T14:39:45.289Z,3005
2018-07-21T14:40:55.127Z,2910
2018-07-21T14:42:04.747Z,3030
2018-07-21T14:43:14.308Z,3105
2018-07-21T14:44:23.861Z,3005
2018-07-21T14:45:33.948Z,2935
2018-07-21T14:46:44.034Z,2935
2018-07-21T14:47:53.373Z,2920
2018-07-21T14:49:03.481Z,2825
2018-07-21T14:50:13.568Z,2870
2018-07-21T14:51:23.101Z,2915
2018-07-21T14:52:33.202Z,2875
2018-07-21T14:53:43.328Z,2830
2018-07-21T14:54:54.079Z,2745
2018-07-21T14:56:03.960Z,2575
2018-07-21T14:57:13.231Z,2720
2018-07-21T14:58:22.784Z,2790
2018-07-21T14:59:32.660Z,2660
2018-07-21T15:00:42.211Z,2815
2018-07-21T15:01:52.433Z,2840
2018-07-21T15:03:02.515Z,2745
2018-07-21T15:04:12.338Z,2870
2018-07-21T15:05:22.207Z,2945
2018-07-21T15:06:32.302Z,2810
2018-07-21T15:07:42.116Z,2700
2018-07-21T15:08:52.204Z,2855
2018-07-21T15:10:02.041Z,2840
2018-07-21T15:11:11.906Z,2880
2018-07-21T15:12:22.002Z,2825
2018-07-21T15:13:31.781Z,2735
2018-07-21T15:14:41.881Z,2720
2018-07-21T15:15:51.967Z,2685
2018-07-21T15:17:02.120Z,2735
2018-07-21T15:18:11.940Z,2725
2018-07-21T15:19:22.044Z,2775
2018-07-21T15:20:32.146Z,2615
2018-07-21T15:21:42.249Z,2600
2018-07-21T15:22:52.124Z,2620
2018-07-21T15:24:02.376Z,2640
2018-07-21T15:25:12.169Z,2670
2018-07-21T15:26:21.991Z,2640
2018-07-21T15:27:31.548Z,2665
2018-07-21T15:28:41.434Z,2735
2018-07-21T15:29:51.259Z,2670
2018-07-21T15:31:01.347Z,2745
2018-07-21T15:32:11.154Z,2655
2018-07-21T15:33:20.990Z,2565
2018-07-21T15:34:30.872Z,2690
2018-07-21T15:35:40.703Z,2750
2018-07-21T15:36:50.527Z,2555
2018-07-21T15:38:00.616Z,2555
2018-07-21T15:39:10.764Z,2575
2018-07-21T15:40:20.520Z,2580
2018-07-21T15:41:30.591Z,2570
2018-07-21T15:42:40.709Z,2565
2018-07-21T15:43:50.523Z,2500
2018-07-21T15:45:00.337Z,2555
2018-07-21T15:46:09.949Z,2665
2018-07-21T15:47:20.034Z,2640
2018-07-21T15:48:30.132Z,2610
2018-07-21T15:49:39.679Z,2490
2018-07-21T15:50:49.514Z,2480
2018-07-21T15:51:59.397Z,2480
2018-07-21T15:53:08.958Z,2415
2018-07-21T15:54:18.501Z,2515
2018-07-21T15:55:28.313Z,2440
2018-07-21T15:56:37.328Z,2330
2018-07-21T15:57:47.466Z,2100
2018-07-21T15:58:57.302Z,1535
2018-07-21T16:00:06.868Z,2210
2018-07-21T16:01:16.427Z,2180
2018-07-21T16:02:26.482Z,1725
2018-07-21T16:03:36.357Z,1900
2018-07-21T16:04:46.445Z,1795
2018-07-21T16:05:56.551Z,1725
2018-07-21T16:07:06.106Z,1040
2018-07-21T16:08:15.917Z,1195
2018-07-21T16:09:26.049Z,1225